Flight Track Log - Related Links

Times and Time Zones

All times are in EDT time to prevent confusion due to time zone crossing. See the KAP29 flight status page for this flight to view local times or setup timezone preferences in your user account.

Time Position Orientation Groundspeed Altitude Reporting Facility
EDT Latitude Longitude Course Direction KTS MPH feet Rate Location/Type
Sat 04:17:40 PM 44.2728 -74.0725 109° East 155 178 6,200  Level Boston Center
Sat 04:18:40 PM 44.2528 -74.0139 115° Southeast 155 178 9,000 1,400 Climbing Boston Center
Sat 04:19:40 PM 44.2303 -73.9642 122° Southeast 173 199 9,000 -150 Level Boston Center
Sat 04:20:40 PM 44.2003 -73.8850 118° Southeast 179 206 8,700  Descending Boston Center
Sat 04:21:40 PM 44.1739 -73.8236 121° Southeast 186 214 9,000 150 Climbing Boston Center
Sat 04:22:00 PM 44.2924 -74.0136 133° Southeast  Level FlightAware Approximate
Sat 04:22:40 PM 44.1433 -73.7594 124° Southeast 191 220 9,000  Level Boston Center
Sat 04:23:00 PM 44.2770 -73.9748 109° East  Level FlightAware Approximate
Sat 04:23:40 PM 44.1128 -73.6950 123° Southeast 196 226 9,000  Level Boston Center
Sat 04:24:40 PM 44.0803 -73.6250 123° Southeast 201 231 9,000  Level Boston Center
Sat 04:25:40 PM 44.0517 -73.5550 120° Southeast 206 237 9,000  Level Boston Center
Sat 04:26:40 PM 44.0231 -73.4881 121° Southeast 196 226 9,000 50 Level Boston Center
Sat 04:27:40 PM 43.9967 -73.4214 119° Southeast 226 260 9,100 50 Climbing Boston Center
Sat 04:28:40 PM 43.9681 -73.3517 120° Southeast 226 260 9,100  Level Boston Center
Sat 04:29:40 PM 43.9456 -73.2908 117° Southeast 208 239 9,100 250 Level Boston Center
Sat 04:30:40 PM 43.9231 -73.2269 116° Southeast 196 226 9,600 500 Climbing Boston Center
Sat 04:31:40 PM 43.8986 -73.1661 119° Southeast 191 220 10,100 550 Climbing Boston Center
Sat 04:32:40 PM 43.8739 -73.1083 121° Southeast 180 207 10,700 450 Climbing Boston Center
Sat 04:33:40 PM 43.8492 -73.0503 121° Southeast 180 207 11,000 150 Climbing Boston Center
Sat 04:34:40 PM 43.8225 -72.9867 120° Southeast 180 207 11,000 50 Level Boston Center
Sat 04:35:40 PM 43.7936 -72.9203 121° Southeast 193 222 11,100 50 Climbing Boston Center
Sat 04:36:40 PM 43.7606 -72.8539 125° Southeast 193 222 11,100  Level Boston Center
Sat 04:37:40 PM 43.7317 -72.7906 122° Southeast 193 222 11,100  Level Boston Center
Sat 04:38:40 PM 43.7006 -72.7244 123° Southeast 198 228 11,100  Level Boston Center
Sat 04:39:40 PM 43.6672 -72.6611 126° Southeast 192 221 11,100  Level Boston Center
Sat 04:40:40 PM 43.6383 -72.6008 123° Southeast 192 221 11,100  Level Boston Center
Sat 04:41:40 PM 43.6092 -72.5406 124° Southeast 192 221 11,100 -50 Level Boston Center
Sat 04:42:40 PM 43.5819 -72.4717 119° Southeast 192 221 11,000 -250 Descending Boston Center
Sat 04:43:40 PM 43.5675 -72.3972 105° East 192 221 10,600 -400 Descending Boston Center
Sat 04:44:40 PM 43.5528 -72.3256 106° East 198 228 10,200 -550 Descending Boston Center
Sat 04:45:40 PM 43.5339 -72.2453 108° East 210 242 9,500 -650 Descending Boston Center
Sat 04:46:40 PM 43.5192 -72.1653 104° East 216 249 8,900 -650 Descending Boston Center
Sat 04:47:40 PM 43.5106 -72.0794 98° East 216 249 8,200 -750 Descending Boston Center
Sat 04:48:40 PM 43.4875 -72.0050 113° Southeast 216 249 7,400 -550 Descending Boston Center
Sat 04:49:40 PM 43.4475 -71.9425 131° Southeast 207 238 7,100 -150 Descending Boston Center
Sat 04:50:40 PM 43.4097 -71.8886 134° Southeast 202 232 7,100  Level Boston Center
Sat 04:51:40 PM 43.3658 -71.8347 138° Southeast 202 232 7,100 -50 Level Boston Center
Sat 04:52:40 PM 43.3300 -71.7922 139° Southeast 191 220 7,000  Descending Boston Center
Sat 04:53:40 PM 43.2903 -71.7442 139° Southeast 185 213 7,100 50 Climbing Boston Center
Sat 04:54:40 PM 43.2567 -71.7047 139° Southeast 185 213 7,100  Level Boston Center
Sat 04:55:40 PM 43.2147 -71.6539 139° Southeast 185 213 7,100  Level Boston Center
Sat 04:56:40 PM 43.1811 -71.6117 138° Southeast 185 213 7,100  Level Boston Center
Sat 04:57:40 PM 43.1369 -71.5608 140° Southeast 185 213 7,100  Level Boston Center
Sat 04:58:40 PM 43.1011 -71.5217 141° Southeast 185 213 7,100  Level Boston Center
Sat 04:59:40 PM 43.0550 -71.4797 146° Southeast 180 207 7,100 -150 Level Boston Center
Sat 05:00:40 PM 43.0192 -71.4378 139° Southeast 181 208 6,800 -409 Descending Boston Center
Sat 05:01:52 PM 42.9728 -71.3817 138° Southeast 192 221 6,200 -364 Descending Boston Center
Sat 05:02:52 PM 42.9242 -71.3231 139° Southeast 192 221 6,000 -94 Descending Boston Center
Sat 05:04:00 PM 42.8833 -71.2667 135° Southeast 179 206 6,000  Level KA90
Sat 05:05:00 PM 42.8500 -71.2167 132° Southeast 179 206 6,000  Level KA90
Sat 05:05:54 PM 42.8167 -71.1833 144° Southeast 180 207 6,000 -250 Level KA90
Sat 05:07:00 PM 42.7667 -71.1333 144° Southeast 186 214 5,500 -455 Descending KA90
Sat 05:08:06 PM 42.7167 -71.0833 144° Southeast 180 207 5,000 -476 Descending KA90
Sat 05:09:06 PM 42.6833 -71.0833 180° South 174 200 4,500 -500 Descending KA90
Sat 05:10:06 PM 42.6333 -71.0667 166° South 172 198 4,000 -400 Descending KA90
Sat 05:11:06 PM 42.5833 -71.0500 166° South 164 189 3,700 -550 Descending KA90
Sat 05:12:06 PM 42.5333 -71.0333 166° South 185 213 2,900 -750 Descending KA90
Sat 05:13:06 PM 42.4833 -71.0167 166° South 186 214 2,200 -750 Descending KA90
Sat 05:14:06 PM 42.4333 -70.9833 154° Southeast 184 212 1,400 -750 Descending KA90
Sat 05:15:06 PM 42.4000 -70.9833 180° South 155 178 700 -700 Descending KA90
Sat 05:17:00 PM 42.3630 -71.0064 172° South  Level Estimated
Sat 05:24:00 PM 42.3630 -71.0064 172° South  Level Estimated

Login

Don't have an account? Register now (free) for customized features, flight alerts, and more!